createdAt,value
2023-03-17T00:01:35.822Z,14.45
2023-03-17T00:04:02.048Z,14.44
2023-03-17T00:06:28.212Z,14.44
2023-03-17T00:08:54.324Z,14.44
2023-03-17T00:11:20.458Z,14.46
2023-03-17T00:13:46.642Z,14.45
2023-03-17T00:16:12.797Z,14.44
2023-03-17T00:18:38.959Z,14.44
2023-03-17T00:21:05.079Z,14.45
2023-03-17T00:23:31.174Z,14.45
2023-03-17T00:25:57.326Z,14.45
2023-03-17T00:28:23.525Z,14.45
2023-03-17T00:30:49.632Z,14.44
2023-03-17T00:33:15.823Z,14.46
2023-03-17T00:35:42.080Z,14.46
2023-03-17T00:38:08.218Z,14.44
2023-03-17T00:40:34.365Z,14.46
2023-03-17T00:43:00.470Z,14.46
2023-03-17T00:45:26.664Z,14.46
2023-03-17T00:47:52.797Z,14.46
2023-03-17T00:50:18.975Z,14.46
2023-03-17T00:52:45.098Z,14.45
2023-03-17T00:55:11.212Z,14.45
2023-03-17T00:57:37.415Z,14.45
2023-03-17T01:00:03.552Z,14.45
2023-03-17T01:02:29.722Z,14.44
2023-03-17T01:05:05.756Z,14.46
2023-03-17T01:07:32.567Z,14.46
2023-03-17T01:09:58.709Z,14.46
2023-03-17T01:12:24.810Z,14.45
2023-03-17T01:14:50.907Z,14.46
2023-03-17T01:17:17.125Z,14.45
2023-03-17T01:19:43.302Z,14.46
2023-03-17T01:22:09.439Z,14.45
2023-03-17T01:24:35.610Z,14.45
2023-03-17T01:27:01.758Z,14.45
2023-03-17T01:29:27.945Z,14.45
2023-03-17T01:31:54.139Z,14.45
2023-03-17T01:34:20.353Z,14.44
2023-03-17T01:36:46.473Z,14.45
2023-03-17T01:39:12.799Z,14.44
2023-03-17T01:41:38.956Z,14.43
2023-03-17T01:44:05.092Z,14.43
2023-03-17T01:46:31.225Z,14.43
2023-03-17T01:48:57.321Z,14.43
2023-03-17T01:51:23.434Z,14.43
2023-03-17T01:53:49.547Z,14.44
2023-03-17T01:56:15.671Z,14.44
2023-03-17T01:58:41.805Z,14.43
2023-03-17T02:01:08.234Z,14.42
2023-03-17T02:03:34.351Z,14.44
2023-03-17T02:06:00.509Z,14.43
2023-03-17T02:08:26.631Z,14.43
2023-03-17T02:10:52.800Z,14.43
2023-03-17T02:13:18.924Z,14.44
2023-03-17T02:15:45.060Z,14.43
2023-03-17T02:18:13.350Z,14.42
2023-03-17T02:20:39.489Z,14.43
2023-03-17T02:23:05.694Z,14.41
2023-03-17T02:25:31.812Z,14.43
2023-03-17T02:27:57.915Z,14.42
2023-03-17T02:30:24.100Z,14.43
2023-03-17T02:32:50.285Z,14.42
2023-03-17T02:35:16.435Z,14.41
2023-03-17T02:37:42.565Z,14.41
2023-03-17T02:40:08.675Z,14.42
2023-03-17T02:42:34.796Z,14.42
2023-03-17T02:45:01.477Z,14.41
2023-03-17T02:47:27.656Z,14.41
2023-03-17T02:49:53.768Z,14.41
2023-03-17T02:52:19.927Z,14.41
2023-03-17T02:54:46.050Z,14.41
2023-03-17T02:57:12.187Z,14.42
2023-03-17T02:59:38.352Z,14.40
2023-03-17T03:02:04.481Z,14.40
2023-03-17T03:04:30.605Z,14.40
2023-03-17T03:06:56.836Z,14.40
2023-03-17T03:09:22.998Z,14.42
2023-03-17T03:11:49.141Z,14.41
2023-03-17T03:14:15.251Z,14.41
2023-03-17T03:16:41.412Z,14.41
2023-03-17T03:19:07.564Z,14.41
2023-03-17T03:21:33.812Z,14.42
2023-03-17T03:23:59.954Z,14.41
2023-03-17T03:26:26.086Z,14.41
2023-03-17T03:28:52.220Z,14.41
2023-03-17T03:31:18.457Z,14.41
2023-03-17T03:33:44.609Z,14.42
2023-03-17T03:36:10.815Z,14.42
2023-03-17T03:38:37.029Z,14.42
2023-03-17T03:41:03.169Z,14.43
2023-03-17T03:43:29.295Z,14.42
2023-03-17T03:45:55.381Z,14.43
2023-03-17T03:48:21.493Z,14.43
2023-03-17T03:50:47.600Z,14.42
2023-03-17T03:53:13.744Z,14.43
2023-03-17T03:55:39.830Z,14.42
2023-03-17T03:58:05.971Z,14.43
2023-03-17T04:00:32.659Z,14.42
2023-03-17T04:02:59.009Z,14.42
2023-03-17T04:05:25.178Z,14.41
2023-03-17T04:07:51.278Z,14.43
2023-03-17T04:10:17.465Z,14.42
2023-03-17T04:12:43.624Z,14.42
2023-03-17T04:15:09.801Z,14.42
2023-03-17T04:17:35.932Z,14.41
2023-03-17T04:20:02.141Z,14.42
2023-03-17T04:22:28.343Z,14.42
2023-03-17T04:24:54.450Z,14.41
2023-03-17T04:27:21.581Z,14.42
2023-03-17T04:29:47.686Z,14.42
2023-03-17T04:32:13.795Z,14.42
2023-03-17T04:34:39.919Z,14.43
2023-03-17T04:37:06.104Z,14.42
2023-03-17T04:39:32.218Z,14.42
2023-03-17T04:41:58.401Z,14.43
2023-03-17T04:44:24.559Z,14.43
2023-03-17T04:46:50.650Z,14.42
2023-03-17T04:49:16.819Z,14.43
2023-03-17T04:51:42.970Z,14.42
2023-03-17T04:54:09.088Z,14.42
2023-03-17T04:56:35.208Z,14.42
2023-03-17T04:59:01.420Z,14.41
2023-03-17T05:01:27.632Z,14.40
2023-03-17T05:03:53.919Z,14.41
2023-03-17T05:06:20.125Z,14.41
2023-03-17T05:08:46.246Z,14.42
2023-03-17T05:11:12.463Z,14.41
2023-03-17T05:13:38.569Z,14.42
2023-03-17T05:16:04.766Z,14.42
2023-03-17T05:18:30.912Z,14.42
2023-03-17T05:20:57.109Z,14.42
2023-03-17T05:23:23.239Z,14.41
2023-03-17T05:25:49.437Z,14.43
2023-03-17T05:28:15.621Z,14.42
2023-03-17T05:30:41.791Z,14.42
2023-03-17T05:33:08.468Z,14.41
2023-03-17T05:35:34.796Z,14.42
2023-03-17T05:38:00.971Z,14.41
2023-03-17T05:40:27.182Z,14.42
2023-03-17T05:42:53.389Z,14.40
2023-03-17T05:45:19.584Z,14.40
2023-03-17T05:47:45.803Z,14.40
2023-03-17T05:50:12.000Z,14.40
2023-03-17T05:52:38.131Z,14.41
2023-03-17T05:55:04.347Z,14.41
2023-03-17T05:57:30.533Z,14.41
2023-03-17T05:59:56.745Z,14.40
2023-03-17T06:02:22.999Z,14.39
2023-03-17T06:04:49.268Z,14.39
2023-03-17T06:07:15.450Z,14.40
2023-03-17T06:09:41.624Z,14.39
2023-03-17T06:12:07.791Z,14.38
2023-03-17T06:14:33.977Z,14.39
2023-03-17T06:17:00.139Z,14.39
2023-03-17T06:19:26.233Z,14.40
2023-03-17T06:21:52.354Z,14.40
2023-03-17T06:24:18.572Z,14.39
2023-03-17T06:26:44.751Z,14.40
2023-03-17T06:29:10.875Z,14.40
2023-03-17T06:31:37.108Z,14.40
2023-03-17T06:34:03.348Z,14.41
2023-03-17T06:36:29.588Z,14.40
2023-03-17T06:38:55.796Z,14.41
2023-03-17T06:41:22.009Z,14.41
2023-03-17T06:43:48.148Z,14.39
2023-03-17T06:46:14.396Z,14.40
2023-03-17T06:48:40.561Z,14.41
2023-03-17T06:51:06.745Z,14.40
2023-03-17T06:53:32.963Z,14.40
2023-03-17T06:55:59.076Z,14.40
2023-03-17T06:58:25.280Z,14.41
2023-03-17T07:00:51.482Z,14.41
2023-03-17T07:03:17.700Z,14.42
2023-03-17T07:05:43.806Z,14.40
2023-03-17T07:08:10.017Z,14.41
2023-03-17T07:10:36.221Z,14.40
2023-03-17T07:13:02.372Z,14.41
2023-03-17T07:15:28.753Z,14.41
2023-03-17T07:17:55.055Z,14.41
2023-03-17T07:20:21.187Z,14.41
2023-03-17T07:22:47.484Z,14.41
2023-03-17T07:25:13.707Z,14.41
2023-03-17T07:27:40.005Z,14.40
2023-03-17T07:30:06.236Z,14.41
2023-03-17T07:32:32.421Z,14.41
2023-03-17T07:34:58.719Z,14.42
2023-03-17T07:37:25.119Z,14.41
2023-03-17T07:39:51.274Z,14.42
2023-03-17T07:42:17.494Z,14.42
2023-03-17T07:44:43.768Z,14.42
2023-03-17T07:47:09.971Z,14.43
2023-03-17T07:49:41.718Z,14.41
2023-03-17T07:52:08.450Z,14.42
2023-03-17T07:54:35.556Z,14.42
2023-03-17T07:57:01.746Z,14.43
2023-03-17T07:59:28.622Z,14.42
2023-03-17T08:01:54.876Z,14.43
2023-03-17T08:04:21.053Z,14.42
2023-03-17T08:06:47.239Z,14.42
2023-03-17T08:09:13.354Z,14.42
2023-03-17T08:11:39.578Z,14.43
2023-03-17T08:14:05.788Z,14.43
2023-03-17T08:16:32.044Z,14.42
2023-03-17T08:18:58.267Z,14.42
2023-03-17T08:21:24.408Z,14.44
2023-03-17T08:23:50.597Z,14.44
2023-03-17T08:26:16.710Z,14.44
2023-03-17T08:28:43.266Z,14.44
2023-03-17T08:31:12.205Z,14.43
2023-03-17T08:33:38.641Z,14.44
2023-03-17T08:36:04.926Z,14.44
2023-03-17T08:38:31.064Z,14.45
2023-03-17T08:40:57.163Z,14.43
2023-03-17T08:43:23.470Z,14.43
2023-03-17T08:45:49.718Z,14.44
2023-03-17T08:48:15.915Z,14.44
2023-03-17T08:50:42.128Z,14.45
2023-03-17T08:53:08.233Z,14.45
2023-03-17T08:55:34.441Z,14.46
2023-03-17T08:58:02.596Z,14.45
2023-03-17T09:00:28.823Z,14.46
2023-03-17T09:02:55.043Z,14.47
2023-03-17T09:05:21.184Z,14.46
2023-03-17T09:07:47.329Z,14.46
2023-03-17T09:10:13.552Z,14.47
2023-03-17T09:12:42.522Z,14.48
2023-03-17T09:15:08.737Z,14.47
2023-03-17T09:17:34.928Z,14.48
2023-03-17T09:20:01.055Z,14.48
2023-03-17T09:22:27.304Z,14.48
2023-03-17T09:24:53.468Z,14.48
2023-03-17T09:27:19.674Z,14.49
2023-03-17T09:29:45.796Z,14.49
2023-03-17T09:32:11.901Z,14.48
2023-03-17T09:34:38.098Z,14.48
2023-03-17T09:37:04.242Z,14.48
2023-03-17T09:39:30.414Z,14.48
2023-03-17T09:41:56.540Z,14.48
2023-03-17T09:44:22.645Z,14.50
2023-03-17T09:46:48.899Z,14.51
2023-03-17T09:49:15.157Z,14.51
2023-03-17T09:51:41.367Z,14.52
2023-03-17T09:54:07.482Z,14.52
2023-03-17T09:56:33.706Z,14.52
2023-03-17T09:58:59.939Z,14.52
2023-03-17T10:01:26.133Z,14.52
2023-03-17T10:03:52.272Z,14.52
2023-03-17T10:06:18.419Z,14.52
2023-03-17T10:08:44.558Z,14.53
2023-03-17T10:11:10.869Z,14.53
2023-03-17T10:13:37.023Z,14.52
2023-03-17T10:16:03.163Z,14.54
2023-03-17T10:18:29.303Z,14.54
2023-03-17T10:20:55.403Z,14.53
2023-03-17T10:23:21.525Z,14.52
2023-03-17T10:25:47.668Z,14.53
2023-03-17T10:28:13.775Z,14.55
2023-03-17T10:30:39.890Z,14.54
2023-03-17T10:33:06.136Z,14.55
2023-03-17T10:35:32.775Z,14.55
2023-03-17T10:38:13.725Z,14.55
2023-03-17T10:40:40.704Z,14.54
2023-03-17T10:43:06.878Z,14.56
2023-03-17T10:45:33.002Z,14.56
2023-03-17T10:47:59.116Z,14.56
2023-03-17T10:50:25.321Z,14.57
2023-03-17T10:52:51.421Z,14.58
2023-03-17T10:55:20.434Z,14.58
2023-03-17T10:57:46.582Z,14.60
2023-03-17T11:00:12.722Z,14.59
2023-03-17T11:02:38.839Z,14.58
2023-03-17T11:05:04.958Z,14.59
2023-03-17T11:07:31.069Z,14.58
2023-03-17T11:09:57.463Z,14.60
2023-03-17T11:12:23.703Z,14.60
2023-03-17T11:14:49.879Z,14.61
2023-03-17T11:17:16.008Z,14.62
2023-03-17T11:19:42.246Z,14.62
2023-03-17T11:22:08.401Z,14.63
2023-03-17T11:24:34.543Z,14.63
2023-03-17T11:27:00.779Z,14.64
2023-03-17T11:29:27.036Z,14.65
2023-03-17T11:31:56.182Z,14.65
2023-03-17T11:34:22.358Z,14.66
2023-03-17T11:36:48.515Z,14.65
2023-03-17T11:39:14.692Z,14.66
2023-03-17T11:41:40.876Z,14.67
2023-03-17T11:44:07.097Z,14.67
2023-03-17T11:46:33.484Z,14.69
2023-03-17T11:48:59.612Z,14.68
2023-03-17T11:51:25.820Z,14.69
2023-03-17T11:53:51.944Z,14.68
2023-03-17T11:56:18.077Z,14.69
2023-03-17T11:58:44.241Z,14.69
2023-03-17T12:01:10.461Z,14.70
2023-03-17T12:03:36.692Z,14.70
2023-03-17T12:06:02.939Z,14.71
2023-03-17T12:08:29.106Z,14.70
2023-03-17T12:10:55.225Z,14.72
2023-03-17T12:13:21.547Z,14.71
2023-03-17T12:15:48.332Z,14.73
2023-03-17T12:18:14.522Z,14.73
2023-03-17T12:20:40.706Z,14.74
2023-03-17T12:23:06.946Z,14.75
2023-03-17T12:25:33.117Z,14.75
2023-03-17T12:27:59.247Z,14.75
2023-03-17T12:30:25.443Z,14.74
2023-03-17T12:32:51.634Z,14.74
2023-03-17T12:35:17.894Z,14.74
2023-03-17T12:37:44.075Z,14.73
2023-03-17T12:40:10.211Z,14.72
2023-03-17T12:42:36.352Z,14.73
2023-03-17T12:45:02.645Z,14.73
2023-03-17T12:47:28.734Z,14.73
2023-03-17T12:49:54.949Z,14.73
2023-03-17T12:52:22.054Z,14.73
2023-03-17T12:54:48.264Z,14.73
2023-03-17T12:57:14.555Z,14.73
2023-03-17T12:59:40.827Z,14.75
2023-03-17T13:02:06.966Z,14.74
2023-03-17T13:04:33.126Z,14.74
2023-03-17T13:06:59.339Z,14.75
2023-03-17T13:09:25.540Z,14.75
2023-03-17T13:11:51.753Z,14.76
2023-03-17T13:14:18.021Z,14.76
2023-03-17T13:16:44.225Z,14.76
2023-03-17T13:19:10.393Z,14.77
2023-03-17T13:21:36.751Z,14.77
2023-03-17T13:24:03.026Z,14.78
2023-03-17T13:26:29.171Z,14.79
2023-03-17T13:28:55.884Z,14.79
2023-03-17T13:31:22.119Z,14.79
2023-03-17T13:33:48.297Z,14.79
2023-03-17T13:36:14.537Z,14.81
2023-03-17T13:38:40.783Z,14.80
2023-03-17T13:41:06.907Z,14.81
2023-03-17T13:43:33.148Z,14.81
2023-03-17T13:45:59.520Z,14.81
2023-03-17T13:48:25.716Z,14.82
2023-03-17T13:50:51.949Z,14.81
2023-03-17T13:53:18.108Z,14.82
2023-03-17T13:55:44.261Z,14.83
2023-03-17T13:58:11.985Z,14.84
2023-03-17T14:00:38.373Z,14.84
2023-03-17T14:03:04.564Z,14.86
2023-03-17T14:05:30.861Z,14.85
2023-03-17T14:07:57.176Z,14.86
2023-03-17T14:10:23.342Z,14.86
2023-03-17T14:12:51.163Z,14.87
2023-03-17T14:15:17.559Z,14.86
2023-03-17T14:17:43.726Z,14.87
2023-03-17T14:20:09.928Z,14.89
2023-03-17T14:22:36.102Z,14.89
2023-03-17T14:25:02.298Z,14.88
2023-03-17T14:27:28.528Z,14.89
2023-03-17T14:29:54.634Z,14.90
2023-03-17T14:32:20.752Z,14.90
2023-03-17T14:34:46.872Z,14.91
2023-03-17T14:37:13.023Z,14.93
2023-03-17T14:39:39.264Z,14.92
2023-03-17T14:42:05.377Z,14.91
2023-03-17T14:44:31.478Z,14.91
2023-03-17T14:46:57.608Z,14.93
2023-03-17T14:49:24.042Z,14.93
2023-03-17T14:51:50.228Z,14.94
2023-03-17T14:54:16.336Z,14.94
2023-03-17T14:56:42.461Z,14.94
2023-03-17T14:59:08.649Z,14.95
2023-03-17T15:01:34.826Z,14.96
2023-03-17T15:04:00.994Z,14.97
2023-03-17T15:06:27.097Z,14.96
2023-03-17T15:08:53.199Z,14.98
2023-03-17T15:11:19.342Z,14.97
2023-03-17T15:13:45.435Z,14.97
2023-03-17T15:16:11.538Z,14.98
2023-03-17T15:18:37.666Z,14.98
2023-03-17T15:21:03.830Z,15.00
2023-03-17T15:23:29.966Z,15.00
2023-03-17T15:25:56.179Z,15.00
2023-03-17T15:28:22.266Z,15.00
2023-03-17T15:30:48.929Z,15.00
2023-03-17T15:33:15.343Z,15.00
2023-03-17T15:35:41.624Z,15.02
2023-03-17T15:38:07.778Z,15.01
2023-03-17T15:40:33.975Z,15.01
2023-03-17T15:43:00.212Z,15.01
2023-03-17T15:45:26.398Z,15.02
2023-03-17T15:47:52.596Z,15.02
2023-03-17T15:50:18.782Z,15.03
2023-03-17T15:52:44.901Z,15.04
2023-03-17T15:55:11.094Z,15.02
2023-03-17T15:57:37.308Z,15.03
2023-03-17T16:00:03.531Z,15.03
2023-03-17T16:02:29.744Z,15.04
2023-03-17T16:04:55.943Z,15.05
2023-03-17T16:07:22.147Z,15.06
2023-03-17T16:09:48.453Z,15.06
2023-03-17T16:12:14.610Z,15.06
2023-03-17T16:14:40.880Z,15.06
2023-03-17T16:17:07.194Z,15.07
2023-03-17T16:19:33.408Z,15.07
2023-03-17T16:21:59.722Z,15.08
2023-03-17T16:24:25.946Z,15.09
2023-03-17T16:26:52.151Z,15.10
2023-03-17T16:29:18.455Z,15.10
2023-03-17T16:31:44.666Z,15.09
2023-03-17T16:34:10.862Z,15.09
2023-03-17T16:36:36.981Z,15.10
2023-03-17T16:39:03.206Z,15.10
2023-03-17T16:41:29.307Z,15.10
2023-03-17T16:43:55.442Z,15.10
2023-03-17T16:46:21.646Z,15.10
2023-03-17T16:48:47.822Z,15.11
2023-03-17T16:51:14.005Z,15.11
2023-03-17T16:53:40.145Z,15.11
2023-03-17T16:56:06.282Z,15.11
2023-03-17T16:58:32.461Z,15.10
2023-03-17T17:00:58.590Z,15.11
2023-03-17T17:03:24.678Z,15.10
2023-03-17T17:05:50.797Z,15.11
2023-03-17T17:08:16.989Z,15.11
2023-03-17T17:10:43.242Z,15.11
2023-03-17T17:13:09.371Z,15.12
2023-03-17T17:15:35.544Z,15.12
2023-03-17T17:18:01.656Z,15.12
2023-03-17T17:20:27.838Z,15.13
2023-03-17T17:22:53.960Z,15.13
2023-03-17T17:25:20.052Z,15.13
2023-03-17T17:27:46.166Z,15.13
2023-03-17T17:30:12.306Z,15.15
2023-03-17T17:32:38.426Z,15.13
2023-03-17T17:35:04.576Z,15.15
2023-03-17T17:37:30.726Z,15.15
2023-03-17T17:39:56.852Z,15.16
2023-03-17T17:42:22.976Z,15.15
2023-03-17T17:44:49.111Z,15.17
2023-03-17T17:47:15.196Z,15.16
2023-03-17T17:49:41.286Z,15.17
2023-03-17T17:52:07.387Z,15.17
2023-03-17T17:54:33.493Z,15.17
2023-03-17T17:56:59.602Z,15.16
2023-03-17T17:59:25.714Z,15.17
2023-03-17T18:01:51.819Z,15.18
2023-03-17T18:04:17.929Z,15.17
2023-03-17T18:06:44.071Z,15.17
2023-03-17T18:09:10.184Z,15.17
2023-03-17T18:11:36.345Z,15.16
2023-03-17T18:14:02.500Z,15.17
2023-03-17T18:16:28.685Z,15.17
2023-03-17T18:18:54.833Z,15.18
2023-03-17T18:21:20.987Z,15.16
2023-03-17T18:23:48.804Z,15.17
2023-03-17T18:26:14.938Z,15.18
2023-03-17T18:28:41.063Z,15.16
2023-03-17T18:31:07.179Z,15.18
2023-03-17T18:33:33.296Z,15.17
2023-03-17T18:35:59.897Z,15.18
2023-03-17T18:38:26.094Z,15.17
2023-03-17T18:40:52.188Z,15.18
2023-03-17T18:43:18.330Z,15.18
2023-03-17T18:45:44.592Z,15.17
2023-03-17T18:48:10.730Z,15.19
2023-03-17T18:50:36.839Z,15.17
2023-03-17T18:53:02.934Z,15.17
2023-03-17T18:55:29.091Z,15.18
2023-03-17T18:57:56.164Z,15.19
2023-03-17T19:00:22.288Z,15.18
2023-03-17T19:02:48.542Z,15.18
2023-03-17T19:05:14.737Z,15.16
2023-03-17T19:07:40.908Z,15.17
2023-03-17T19:10:07.045Z,15.17
2023-03-17T19:12:33.178Z,15.18
2023-03-17T19:14:59.342Z,15.18
2023-03-17T19:17:25.460Z,15.17
2023-03-17T19:19:51.794Z,15.17
2023-03-17T19:22:17.915Z,15.17
2023-03-17T19:24:44.011Z,15.16
2023-03-17T19:27:10.131Z,15.17
2023-03-17T19:29:36.244Z,15.17
2023-03-17T19:32:02.375Z,15.18
2023-03-17T19:34:28.554Z,15.18
2023-03-17T19:36:54.744Z,15.18
2023-03-17T19:39:20.833Z,15.18
2023-03-17T19:41:47.675Z,15.17
2023-03-17T19:44:13.798Z,15.17
2023-03-17T19:46:39.901Z,15.17
2023-03-17T19:49:06.017Z,15.16
2023-03-17T19:51:32.110Z,15.17
2023-03-17T19:53:58.208Z,15.17
2023-03-17T19:56:24.351Z,15.17
2023-03-17T19:58:50.451Z,15.17
2023-03-17T20:01:16.675Z,15.17
2023-03-17T20:03:43.052Z,15.16
2023-03-17T20:06:09.245Z,15.17
2023-03-17T20:08:35.392Z,15.17
2023-03-17T20:11:01.581Z,15.17
2023-03-17T20:13:27.714Z,15.18
2023-03-17T20:15:53.829Z,15.17
2023-03-17T20:18:19.995Z,15.20
2023-03-17T20:20:46.157Z,15.20
2023-03-17T20:23:12.264Z,15.21
2023-03-17T20:25:38.392Z,15.21
2023-03-17T20:28:05.678Z,15.20
2023-03-17T20:30:31.931Z,15.20
2023-03-17T20:32:58.250Z,15.18
2023-03-17T20:35:24.425Z,15.18
2023-03-17T20:37:50.526Z,15.18
2023-03-17T20:40:16.671Z,15.17
2023-03-17T20:42:42.818Z,15.17
2023-03-17T20:45:09.006Z,15.18
2023-03-17T20:47:35.173Z,15.18
2023-03-17T20:50:01.293Z,15.17
2023-03-17T20:52:29.992Z,15.17
2023-03-17T20:54:56.408Z,15.16
2023-03-17T20:57:22.575Z,15.17
2023-03-17T20:59:48.772Z,15.17
2023-03-17T21:02:14.945Z,15.17
2023-03-17T21:04:41.062Z,15.17
2023-03-17T21:07:07.178Z,15.17
2023-03-17T21:09:33.344Z,15.17
2023-03-17T21:11:59.544Z,15.17
2023-03-17T21:14:25.665Z,15.17
2023-03-17T21:16:51.815Z,15.16
2023-03-17T21:19:17.966Z,15.17
2023-03-17T21:21:44.080Z,15.17
2023-03-17T21:24:10.246Z,15.18
2023-03-17T21:26:36.394Z,15.17
2023-03-17T21:29:02.524Z,15.15
2023-03-17T21:31:28.680Z,15.16
2023-03-17T21:33:54.836Z,15.17
2023-03-17T21:36:20.943Z,15.16
2023-03-17T21:38:47.051Z,15.16
2023-03-17T21:41:13.180Z,15.17
2023-03-17T21:43:39.296Z,15.16
2023-03-17T21:46:05.618Z,15.16
2023-03-17T21:48:31.793Z,15.16
2023-03-17T21:50:57.896Z,15.15
2023-03-17T21:53:24.032Z,15.17
2023-03-17T21:55:50.209Z,15.17
2023-03-17T21:58:16.346Z,15.15
2023-03-17T22:00:45.499Z,15.17
2023-03-17T22:03:12.262Z,15.16
2023-03-17T22:05:38.401Z,15.17
2023-03-17T22:08:04.556Z,15.16
2023-03-17T22:10:30.943Z,15.17
2023-03-17T22:12:57.176Z,15.17
2023-03-17T22:15:23.314Z,15.18
2023-03-17T22:17:49.470Z,15.18
2023-03-17T22:20:15.612Z,15.17
2023-03-17T22:22:41.824Z,15.17
2023-03-17T22:25:07.936Z,15.17
2023-03-17T22:27:34.111Z,15.18
2023-03-17T22:30:00.282Z,15.17
2023-03-17T22:32:26.467Z,15.17
2023-03-17T22:34:52.560Z,15.18
2023-03-17T22:37:18.705Z,15.17
2023-03-17T22:39:44.807Z,15.17
2023-03-17T22:42:10.904Z,15.18
2023-03-17T22:44:37.024Z,15.18
2023-03-17T22:47:03.127Z,15.18
2023-03-17T22:49:29.250Z,15.18
2023-03-17T22:54:45.571Z,15.17
2023-03-17T22:57:11.768Z,15.18
2023-03-17T22:59:37.883Z,15.17
2023-03-17T23:02:04.004Z,15.18
2023-03-17T23:04:30.106Z,15.18
2023-03-17T23:06:56.207Z,15.17
2023-03-17T23:09:22.330Z,15.18
2023-03-17T23:11:48.454Z,15.18
2023-03-17T23:14:14.549Z,15.18
2023-03-17T23:16:40.798Z,15.18
2023-03-17T23:19:06.958Z,15.18
2023-03-17T23:21:33.064Z,15.19
2023-03-17T23:23:59.213Z,15.19
2023-03-17T23:26:25.382Z,15.21
2023-03-17T23:28:51.490Z,15.21
2023-03-17T23:31:17.968Z,15.21
2023-03-17T23:33:44.131Z,15.21
2023-03-17T23:36:10.245Z,15.22
2023-03-17T23:38:36.426Z,15.22
2023-03-17T23:41:02.551Z,15.22
2023-03-17T23:43:28.664Z,15.22
2023-03-17T23:45:54.845Z,15.23
2023-03-17T23:48:20.993Z,15.23
2023-03-17T23:50:47.168Z,15.23
2023-03-17T23:53:13.290Z,15.24
2023-03-17T23:55:39.413Z,15.24
2023-03-17T23:58:05.527Z,15.24
